Time;durP1;ratioP1;P1;durP2;ratioP2;P2;SDS_P1;SDS_P2;PMS_P1;PMS_P2;Temp;Humidity;BMP_temperature;BMP_pressure;BME280_temperature;BME280_humidity;BME280_pressure;Samples;Min_cycle;Max_cycle;Signal;HPM_P1;HPM_P2
2020/12/26 00:02:21;;;;;;;3.05;2.75;;;21.50;36.40;;;;;;5013910;28;20487;-69
2020/12/26 00:04:48;;;;;;;2.67;2.38;;;21.50;36.40;;;;;;5013762;28;20551;-69
2020/12/26 00:07:14;;;;;;;2.90;2.70;;;21.50;37.00;;;;;;5013897;28;20450;-69
2020/12/26 00:09:40;;;;;;;2.75;2.47;;;21.50;36.30;;;;;;5013770;28;20503;-69
2020/12/26 00:12:06;;;;;;;2.67;2.47;;;21.50;36.30;;;;;;5013793;28;20424;-69
2020/12/26 00:14:32;;;;;;;2.55;2.35;;;21.50;36.20;;;;;;5012455;28;20404;-70
2020/12/26 00:16:58;;;;;;;2.87;2.57;;;21.50;36.10;;;;;;5013223;28;20481;-69
2020/12/26 00:19:25;;;;;;;2.63;2.42;;;21.60;36.20;;;;;;5013438;28;20459;-69
2020/12/26 00:21:51;;;;;;;2.80;2.40;;;21.60;36.40;;;;;;5013400;28;20400;-69
2020/12/26 00:24:17;;;;;;;3.03;2.53;;;21.60;36.10;;;;;;5012528;28;20885;-69
2020/12/26 00:26:43;;;;;;;2.53;2.33;;;21.50;36.00;;;;;;5013139;28;20389;-70
2020/12/26 00:29:09;;;;;;;2.60;2.40;;;21.60;36.10;;;;;;5012969;28;20471;-69
2020/12/26 00:31:35;;;;;;;2.60;2.37;;;21.60;36.10;;;;;;5013337;28;20970;-69
2020/12/26 00:34:00;;;;;;;2.45;2.25;;;21.60;36.00;;;;;;5013291;28;20722;-69
2020/12/26 00:36:26;;;;;;;2.80;2.40;;;21.50;35.90;;;;;;5013129;28;20471;-69
2020/12/26 00:38:51;;;;;;;2.53;2.33;;;21.60;35.90;;;;;;5012496;28;20953;-69
2020/12/26 00:41:17;;;;;;;2.50;2.30;;;21.60;35.90;;;;;;5013136;28;20400;-69
2020/12/26 00:43:43;;;;;;;2.50;2.30;;;21.50;35.80;;;;;;5012893;28;20392;-69
2020/12/26 00:46:09;;;;;;;2.50;2.30;;;21.50;35.80;;;;;;4995345;28;20385;-69
2020/12/26 00:48:34;;;;;;;2.25;2.05;;;21.50;35.80;;;;;;5012787;28;20428;-69
2020/12/26 00:51:00;;;;;;;2.33;2.13;;;21.50;35.80;;;;;;5010806;28;20440;-69
2020/12/26 00:53:26;;;;;;;2.20;2.00;;;21.50;35.80;;;;;;5012878;28;20400;-69
2020/12/26 00:55:52;;;;;;;2.40;2.20;;;21.50;35.80;;;;;;5012435;28;20865;-69
2020/12/26 00:58:18;;;;;;;2.22;2.03;;;21.50;35.80;;;;;;4995109;28;20401;-69
2020/12/26 01:00:43;;;;;;;2.30;2.10;;;21.50;35.80;;;;;;5012372;28;20393;-70
2020/12/26 01:03:09;;;;;;;2.33;2.13;;;21.50;35.80;;;;;;5011923;28;20444;-70
2020/12/26 01:05:35;;;;;;;2.40;2.20;;;21.40;35.80;;;;;;5011061;28;20404;-69
2020/12/26 01:08:00;;;;;;;2.30;2.10;;;21.40;35.70;;;;;;5012251;28;20749;-69
2020/12/26 01:10:26;;;;;;;2.30;2.10;;;21.40;35.80;;;;;;5012477;28;20404;-69
2020/12/26 01:12:52;;;;;;;2.28;2.08;;;21.40;35.70;;;;;;5011873;28;20389;-69
2020/12/26 01:15:19;;;;;;;2.20;2.00;;;21.40;35.70;;;;;;5011665;28;21390;-69
2020/12/26 01:17:44;;;;;;;2.20;2.00;;;21.40;35.70;;;;;;5012257;28;20469;-70
2020/12/26 01:20:10;;;;;;;2.20;2.00;;;21.40;35.70;;;;;;5012224;28;20862;-69
2020/12/26 01:22:37;;;;;;;2.40;2.00;;;21.50;35.70;;;;;;5012270;28;20404;-69
2020/12/26 01:25:06;;;;;;;2.03;1.83;;;21.40;35.70;;;;;;4985198;28;20795;-69
2020/12/26 01:27:32;;;;;;;2.00;1.80;;;21.30;35.90;;;;;;5002996;28;20427;-69
2020/12/26 01:29:58;;;;;;;2.50;1.90;;;21.30;35.70;;;;;;4999832;28;20409;-69
2020/12/26 01:32:27;;;;;;;2.80;1.70;;;21.40;35.90;;;;;;5005776;28;20417;-69
2020/12/26 01:34:57;;;;;;;2.50;1.70;;;21.40;35.90;;;;;;5000497;28;20396;-69
2020/12/26 01:37:22;;;;;;;1.75;1.60;;;21.40;36.10;;;;;;5002475;28;20451;-69
2020/12/26 01:39:48;;;;;;;1.75;1.60;;;21.30;36.30;;;;;;5001221;28;20398;-69
2020/12/26 01:42:14;;;;;;;2.03;1.50;;;21.30;36.60;;;;;;5001065;28;20396;-69
2020/12/26 01:44:40;;;;;;;1.60;1.40;;;21.30;36.60;;;;;;4999845;28;20457;-69
2020/12/26 01:47:07;;;;;;;1.75;1.48;;;21.30;36.50;;;;;;4983369;28;20888;-69
2020/12/26 01:49:33;;;;;;;1.60;1.38;;;21.40;36.60;;;;;;5001472;28;20457;-69
2020/12/26 01:52:00;;;;;;;2.40;1.60;;;21.40;36.70;;;;;;4982435;28;20387;-69
2020/12/26 01:54:26;;;;;;;2.40;1.45;;;21.30;36.70;;;;;;5002607;28;20942;-69
2020/12/26 01:56:53;;;;;;;2.28;1.42;;;21.30;36.70;;;;;;5008344;28;20397;-69
2020/12/26 01:59:18;;;;;;;1.58;1.30;;;21.30;36.70;;;;;;5011971;28;20486;-69
2020/12/26 02:01:44;;;;;;;1.70;1.50;;;21.30;36.70;;;;;;5011671;28;20533;-69
2020/12/26 02:04:11;;;;;;;1.67;1.40;;;21.30;36.70;;;;;;5011930;28;20439;-69
2020/12/26 02:06:47;;;;;;;1.60;1.25;;;21.30;36.70;;;;;;5011556;28;20396;-69
2020/12/26 02:09:13;;;;;;;1.50;1.40;;;21.30;36.60;;;;;;5011425;28;20425;-69
2020/12/26 02:11:39;;;;;;;1.52;1.40;;;21.30;36.50;;;;;;5011652;28;20745;-69
2020/12/26 02:14:05;;;;;;;1.77;1.33;;;21.30;36.50;;;;;;5011764;28;20399;-69
2020/12/26 02:16:51;;;;;;;1.70;1.40;;;21.30;36.40;;;;;;5011596;28;20389;-69
2020/12/26 02:19:22;;;;;;;2.40;1.40;;;21.30;36.30;;;;;;5011366;28;20467;-69
2020/12/26 02:21:49;;;;;;;2.47;1.40;;;21.30;36.30;;;;;;5011575;28;20397;-69
2020/12/26 02:24:14;;;;;;;1.60;1.40;;;21.30;36.30;;;;;;5011580;28;20392;-69
2020/12/26 02:26:40;;;;;;;1.90;1.20;;;21.30;36.30;;;;;;5011553;28;20753;-69
2020/12/26 02:29:06;;;;;;;1.70;1.30;;;21.30;36.20;;;;;;5010975;28;20422;-69
2020/12/26 02:31:33;;;;;;;1.65;1.23;;;21.30;36.20;;;;;;4993825;28;20749;-69
2020/12/26 02:34:00;;;;;;;1.48;1.23;;;21.30;36.10;;;;;;5011415;28;20397;-69
2020/12/26 02:36:26;;;;;;;2.10;1.30;;;21.20;36.00;;;;;;5011484;28;20389;-69
2020/12/26 02:38:52;;;;;;;1.40;1.20;;;21.30;36.10;;;;;;4993490;28;20507;-70
2020/12/26 02:41:17;;;;;;;1.40;1.10;;;21.20;35.90;;;;;;5011215;28;20921;-70
2020/12/26 02:43:43;;;;;;;1.70;1.30;;;21.20;35.90;;;;;;5011315;28;20508;-69
2020/12/26 02:46:09;;;;;;;1.10;1.00;;;21.20;35.90;;;;;;5011359;28;20395;-69
2020/12/26 02:48:34;;;;;;;1.70;1.20;;;21.20;35.90;;;;;;5013150;28;20812;-70
2020/12/26 02:51:00;;;;;;;1.20;1.10;;;21.20;35.90;;;;;;4996408;28;20400;-69
2020/12/26 02:53:26;;;;;;;1.45;1.15;;;21.20;35.90;;;;;;5015072;28;20421;-69
2020/12/26 02:55:52;;;;;;;1.40;1.00;;;21.20;35.90;;;;;;5015118;28;20897;-69
2020/12/26 02:58:18;;;;;;;1.55;1.20;;;21.20;35.80;;;;;;4997493;28;20389;-69
2020/12/26 03:00:44;;;;;;;2.13;1.27;;;21.20;35.80;;;;;;4997370;28;20393;-69
2020/12/26 03:03:10;;;;;;;1.30;1.20;;;21.20;35.80;;;;;;4996783;28;20405;-69
2020/12/26 03:05:36;;;;;;;1.20;1.00;;;21.20;35.70;;;;;;5014829;28;20392;-69
2020/12/26 03:08:01;;;;;;;1.37;1.07;;;21.20;35.80;;;;;;5014789;28;20393;-69
2020/12/26 03:10:27;;;;;;;1.30;1.10;;;21.20;35.70;;;;;;5014526;28;20404;-69
2020/12/26 03:12:53;;;;;;;1.20;1.00;;;21.20;35.70;;;;;;5014319;28;20451;-70
2020/12/26 03:15:18;;;;;;;1.67;1.10;;;21.10;35.70;;;;;;4996706;28;20429;-69
2020/12/26 03:17:44;;;;;;;1.20;1.10;;;21.20;35.70;;;;;;4997087;28;20462;-69
2020/12/26 03:20:09;;;;;;;1.17;1.05;;;21.20;35.70;;;;;;5014660;28;20889;-69
2020/12/26 03:22:35;;;;;;;1.20;1.10;;;21.20;35.70;;;;;;4996916;28;20431;-69
2020/12/26 03:25:01;;;;;;;1.20;1.10;;;21.20;35.70;;;;;;5014132;28;20393;-69
2020/12/26 03:27:27;;;;;;;1.40;1.10;;;21.10;35.60;;;;;;4996879;28;20455;-69
2020/12/26 03:29:53;;;;;;;1.20;1.00;;;21.20;35.70;;;;;;5014439;28;20418;-69
2020/12/26 03:32:20;;;;;;;1.10;0.98;;;21.10;35.60;;;;;;5014435;28;20786;-69
2020/12/26 03:34:46;;;;;;;1.37;1.10;;;21.10;35.50;;;;;;4996810;28;20445;-69
2020/12/26 03:37:12;;;;;;;1.20;1.08;;;21.10;35.50;;;;;;5013871;28;20432;-69
2020/12/26 03:39:37;;;;;;;1.10;0.90;;;21.10;35.60;;;;;;5014318;28;20447;-69
2020/12/26 03:42:08;;;;;;;1.50;1.03;;;21.10;35.50;;;;;;5014233;28;20422;-69
2020/12/26 03:44:34;;;;;;;1.23;1.10;;;21.10;35.50;;;;;;5014134;28;20442;-69
2020/12/26 03:47:00;;;;;;;1.20;1.05;;;21.10;35.40;;;;;;5013692;28;20385;-69
2020/12/26 03:49:29;;;;;;;1.10;0.90;;;21.10;35.50;;;;;;5014083;28;20417;-69
2020/12/26 03:51:54;;;;;;;1.25;1.00;;;21.10;36.00;;;;;;5014134;28;20475;-69
2020/12/26 03:54:20;;;;;;;1.40;1.00;;;21.10;35.50;;;;;;5014058;28;20453;-69
2020/12/26 03:56:46;;;;;;;1.10;0.90;;;21.10;35.50;;;;;;5014013;28;20877;-69
2020/12/26 03:59:12;;;;;;;1.20;1.00;;;21.10;35.50;;;;;;5012225;28;20463;-69
2020/12/26 04:01:37;;;;;;;1.17;1.00;;;21.10;35.40;;;;;;5013830;28;20853;-69
2020/12/26 04:04:03;;;;;;;1.42;1.23;;;21.10;35.50;;;;;;5013766;28;20409;-69
2020/12/26 04:06:29;;;;;;;1.50;1.30;;;21.10;35.40;;;;;;5013704;28;20397;-69
2020/12/26 04:08:55;;;;;;;1.30;1.20;;;21.10;35.40;;;;;;5013499;28;20439;-69
2020/12/26 04:11:21;;;;;;;1.50;1.23;;;21.00;35.40;;;;;;5013469;28;20441;-69
2020/12/26 04:13:47;;;;;;;1.50;1.30;;;21.10;35.40;;;;;;5013570;28;20947;-69
2020/12/26 04:16:12;;;;;;;1.55;1.23;;;21.00;35.40;;;;;;5013630;28;20392;-69
2020/12/26 04:18:39;;;;;;;1.52;1.35;;;21.00;35.30;;;;;;5013586;28;20393;-69
2020/12/26 04:21:06;;;;;;;1.48;1.25;;;21.00;35.30;;;;;;5012983;28;20395;-69
2020/12/26 04:23:32;;;;;;;1.60;1.30;;;21.10;35.40;;;;;;5013469;28;20882;-69
2020/12/26 04:25:58;;;;;;;1.52;1.30;;;21.00;35.30;;;;;;5013378;28;20393;-70
2020/12/26 04:28:24;;;;;;;1.63;1.30;;;21.10;35.30;;;;;;5013213;28;20478;-69
2020/12/26 04:30:49;;;;;;;1.50;1.20;;;21.10;35.30;;;;;;5013446;28;20471;-69
2020/12/26 04:33:15;;;;;;;1.70;1.20;;;21.00;35.30;;;;;;5012792;28;20399;-69
2020/12/26 04:35:40;;;;;;;1.70;1.33;;;21.00;35.30;;;;;;5013283;28;20404;-69
2020/12/26 04:38:06;;;;;;;1.50;1.20;;;21.00;35.30;;;;;;5013200;28;20813;-69
2020/12/26 04:40:32;;;;;;;1.30;1.10;;;21.00;35.20;;;;;;4994408;28;20400;-69
2020/12/26 04:42:59;;;;;;;1.40;1.20;;;21.00;35.20;;;;;;4994991;28;20715;-69
2020/12/26 04:45:24;;;;;;;1.60;1.35;;;21.00;35.30;;;;;;4995269;28;20401;-69
2020/12/26 04:48:06;;;;;;;1.40;1.17;;;21.00;35.30;;;;;;5013019;28;20939;-69
2020/12/26 04:50:34;;;;;;;1.50;1.27;;;21.00;35.20;;;;;;5012660;28;20813;-69
2020/12/26 04:53:01;;;;;;;1.60;1.20;;;21.00;35.30;;;;;;5012632;28;20447;-69
2020/12/26 04:55:29;;;;;;;1.40;1.10;;;21.00;35.20;;;;;;5012878;28;20393;-69
2020/12/26 04:58:11;;;;;;;1.27;1.10;;;21.00;35.20;;;;;;4995311;28;20907;-69
2020/12/26 05:00:39;;;;;;;1.30;1.20;;;21.00;35.20;;;;;;5012637;28;20399;-69
2020/12/26 05:03:06;;;;;;;1.50;1.00;;;21.00;35.10;;;;;;5012087;28;20421;-69
2020/12/26 05:05:42;;;;;;;1.30;1.00;;;21.00;35.10;;;;;;5012674;28;20404;-69
2020/12/26 05:08:13;;;;;;;1.30;1.13;;;21.00;35.10;;;;;;4994862;28;20428;-69
2020/12/26 05:10:40;;;;;;;1.40;1.08;;;21.00;35.10;;;;;;5012107;28;20754;-69
2020/12/26 05:13:09;;;;;;;1.30;0.93;;;21.00;35.10;;;;;;5012059;28;20389;-69
2020/12/26 05:15:35;;;;;;;1.45;1.20;;;21.00;35.10;;;;;;5012447;28;20408;-69
2020/12/26 05:18:01;;;;;;;1.33;1.10;;;21.00;35.10;;;;;;5012558;28;20393;-69
2020/12/26 05:20:27;;;;;;;1.20;0.98;;;21.00;35.10;;;;;;5012240;28;20877;-69
2020/12/26 05:23:15;;;;;;;1.30;1.00;;;20.90;35.10;;;;;;5012428;28;20424;-69
2020/12/26 05:25:43;;;;;;;1.35;1.05;;;20.90;35.10;;;;;;5012382;28;20884;-69
2020/12/26 05:28:13;;;;;;;1.40;1.10;;;20.90;35.10;;;;;;5012319;28;20420;-70
2020/12/26 05:30:39;;;;;;;1.10;1.00;;;20.90;35.10;;;;;;5011946;28;20483;-69
2020/12/26 05:33:07;;;;;;;1.30;1.00;;;20.90;35.00;;;;;;5011785;28;20395;-69
2020/12/26 05:35:38;;;;;;;1.60;1.08;;;20.90;35.10;;;;;;5012062;28;20416;-69
2020/12/26 05:38:19;;;;;;;1.20;1.10;;;20.90;35.00;;;;;;5012012;28;20389;-69
2020/12/26 05:41:01;;;;;;;1.60;1.10;;;20.90;35.10;;;;;;5011972;28;20401;-69
2020/12/26 05:43:31;;;;;;;1.27;0.90;;;20.90;35.00;;;;;;5011893;28;20884;-69
2020/12/26 05:45:57;;;;;;;1.20;0.95;;;20.90;35.00;;;;;;5012102;28;20490;-69
2020/12/26 05:48:25;;;;;;;1.27;0.95;;;20.90;35.00;;;;;;5011992;28;20971;-70
2020/12/26 05:50:57;;;;;;;1.10;0.80;;;20.90;35.00;;;;;;5011854;28;20389;-70
2020/12/26 05:53:25;;;;;;;1.38;1.10;;;20.90;35.00;;;;;;5011580;28;20876;-69
2020/12/26 05:55:51;;;;;;;1.40;1.00;;;20.90;35.00;;;;;;5011883;28;20381;-69
2020/12/26 05:58:24;;;;;;;1.23;0.90;;;20.90;35.00;;;;;;5011807;28;20391;-69
2020/12/26 06:00:51;;;;;;;1.20;0.90;;;20.80;34.90;;;;;;5011887;28;20399;-70
2020/12/26 06:03:28;;;;;;;1.15;0.90;;;20.80;34.90;;;;;;4993574;28;20511;-69
2020/12/26 06:05:56;;;;;;;1.25;0.90;;;20.90;35.00;;;;;;4994254;28;20401;-69
2020/12/26 06:08:23;;;;;;;1.00;0.90;;;20.90;35.00;;;;;;5011717;28;20408;-69
2020/12/26 06:11:02;;;;;;;1.10;0.80;;;20.90;35.00;;;;;;4994159;28;20389;-69
2020/12/26 06:13:30;;;;;;;1.20;0.90;;;20.90;34.90;;;;;;4993711;28;20424;-69
2020/12/26 06:16:20;;;;;;;1.13;0.80;;;20.80;34.90;;;;;;5011794;28;20392;-69
2020/12/26 06:18:56;;;;;;;1.10;0.80;;;20.90;35.00;;;;;;5011660;28;20396;-69
2020/12/26 06:21:23;;;;;;;1.10;0.80;;;20.80;34.90;;;;;;5011284;28;20424;-69
2020/12/26 06:23:50;;;;;;;1.02;0.77;;;20.80;34.90;;;;;;4996831;28;20384;-69
2020/12/26 06:26:17;;;;;;;1.00;0.75;;;20.80;34.90;;;;;;4998073;28;20916;-70
2020/12/26 06:28:44;;;;;;;1.00;0.77;;;20.80;35.40;;;;;;5015536;28;20838;-69
2020/12/26 06:31:10;;;;;;;1.07;0.80;;;20.80;34.90;;;;;;4997556;28;20433;-69
2020/12/26 06:33:41;;;;;;;0.90;0.70;;;20.80;34.80;;;;;;5015484;28;20391;-69
2020/12/26 06:36:08;;;;;;;0.90;0.70;;;20.80;34.90;;;;;;4997918;28;20389;-69
2020/12/26 06:38:34;;;;;;;1.08;0.73;;;20.80;34.80;;;;;;5015424;28;20471;-69
2020/12/26 06:41:26;;;;;;;0.90;0.80;;;20.80;34.80;;;;;;5015223;28;20443;-69
2020/12/26 06:43:53;;;;;;;1.13;0.80;;;20.80;34.80;;;;;;5012451;28;20404;-70
2020/12/26 06:46:22;;;;;;;1.02;0.68;;;20.80;34.80;;;;;;5015308;28;20389;-69
2020/12/26 06:48:52;;;;;;;0.90;0.68;;;20.80;34.80;;;;;;5015317;28;20408;-70
2020/12/26 06:51:40;;;;;;;0.98;0.70;;;20.80;34.80;;;;;;5014803;28;20440;-69
2020/12/26 06:54:12;;;;;;;0.70;0.60;;;20.80;34.80;;;;;;4997534;28;20388;-69
2020/12/26 06:56:37;;;;;;;0.83;0.63;;;20.80;34.80;;;;;;4997572;28;20519;-69
2020/12/26 06:59:10;;;;;;;0.98;0.70;;;20.80;34.80;;;;;;4997222;28;20421;-69
2020/12/26 07:01:41;;;;;;;0.80;0.68;;;20.70;34.70;;;;;;5015020;28;20396;-70
2020/12/26 07:04:07;;;;;;;0.95;0.65;;;20.80;34.80;;;;;;5014985;28;20412;-69
2020/12/26 07:06:38;;;;;;;0.90;0.70;;;20.70;34.70;;;;;;5014916;28;20914;-70
2020/12/26 07:09:05;;;;;;;0.90;0.68;;;20.70;34.70;;;;;;5014648;28;20421;-69
2020/12/26 07:11:31;;;;;;;1.00;0.60;;;20.80;34.80;;;;;;5014340;28;20428;-70
2020/12/26 07:13:57;;;;;;;0.90;0.70;;;20.80;34.80;;;;;;5014925;28;20420;-69
2020/12/26 07:16:42;;;;;;;0.80;0.60;;;20.70;34.80;;;;;;5014653;28;20447;-69
2020/12/26 07:19:21;;;;;;;1.00;0.65;;;20.70;34.70;;;;;;5014129;28;20881;-69
2020/12/26 07:21:49;;;;;;;0.90;0.70;;;20.70;34.70;;;;;;5014685;28;20384;-69
2020/12/26 07:24:36;;;;;;;1.50;0.75;;;20.70;35.40;;;;;;5014652;28;20431;-69
2020/12/26 07:27:13;;;;;;;1.40;0.77;;;20.70;34.50;;;;;;5014405;28;20423;-69
2020/12/26 07:29:59;;;;;;;1.70;0.70;;;20.70;35.00;;;;;;5014405;28;20927;-69
2020/12/26 07:32:37;;;;;;;0.85;0.60;;;20.70;34.50;;;;;;5014447;28;20389;-69
2020/12/26 07:35:21;;;;;;;1.63;0.60;;;20.90;35.10;;;;;;5014010;28;20459;-69
2020/12/26 07:37:52;;;;;;;1.30;0.60;;;20.90;34.80;;;;;;4996826;28;20896;-69
2020/12/26 07:40:25;;;;;;;0.80;0.50;;;20.90;34.90;;;;;;4996802;28;20423;-69
2020/12/26 07:42:51;;;;;;;0.95;0.70;;;20.90;34.70;;;;;;5014701;28;20385;-69
2020/12/26 07:45:22;;;;;;;1.50;0.60;;;20.80;34.70;;;;;;5013782;28;20400;-68
2020/12/26 07:47:53;;;;;;;1.20;0.60;;;20.90;34.70;;;;;;5014296;28;20384;-68
2020/12/26 07:50:21;;;;;;;1.00;0.60;;;20.80;34.40;;;;;;5014239;28;20463;-68
2020/12/26 07:52:55;;;;;;;2.20;0.73;;;20.70;34.90;;;;;;4996404;28;20547;-68
2020/12/26 07:55:22;;;;;;;1.38;0.60;;;20.50;34.80;;;;;;5013671;28;20393;-68
2020/12/26 07:57:48;;;;;;;1.80;0.70;;;20.50;34.90;;;;;;5014198;28;20869;-68
2020/12/26 08:00:21;;;;;;;1.20;0.70;;;20.50;35.00;;;;;;5014134;28;20396;-68
2020/12/26 08:02:55;;;;;;;1.98;0.70;;;20.50;35.00;;;;;;5013871;28;20408;-68
2020/12/26 08:05:26;;;;;;;1.27;0.73;;;20.50;35.20;;;;;;4995793;28;20401;-69
2020/12/26 08:07:51;;;;;;;1.85;0.80;;;20.50;35.30;;;;;;5013753;28;20397;-68
2020/12/26 08:10:18;;;;;;;1.60;0.80;;;20.40;35.10;;;;;;5013487;28;20539;-69
2020/12/26 08:12:57;;;;;;;5.88;1.10;;;20.40;35.30;;;;;;4995124;28;20903;-68
2020/12/26 08:15:28;;;;;;;5.38;1.15;;;20.40;35.80;;;;;;5011584;28;20407;-69
2020/12/26 08:17:56;;;;;;;4.18;1.10;;;20.40;36.00;;;;;;5013431;28;20442;-69
2020/12/26 08:20:24;;;;;;;4.18;1.20;;;20.40;36.40;;;;;;5010333;28;20393;-67
2020/12/26 08:22:50;;;;;;;3.00;1.00;;;20.40;36.00;;;;;;4995122;28;20394;-67
2020/12/26 08:25:18;;;;;;;3.97;0.90;;;20.30;35.90;;;;;;4993343;28;20396;-67
2020/12/26 08:27:44;;;;;;;2.40;0.80;;;20.40;36.00;;;;;;5001261;28;20396;-67
2020/12/26 08:30:16;;;;;;;1.75;0.90;;;20.30;36.00;;;;;;5013262;28;20427;-67
2020/12/26 08:32:54;;;;;;;3.00;0.90;;;20.30;35.90;;;;;;4995753;28;20919;-68
2020/12/26 08:35:22;;;;;;;2.47;1.00;;;20.30;36.00;;;;;;5012891;28;20418;-68
2020/12/26 08:37:59;;;;;;;3.87;1.07;;;20.30;36.00;;;;;;5013313;28;20420;-68
2020/12/26 08:40:26;;;;;;;2.30;1.00;;;20.30;35.90;;;;;;4997687;28;20391;-67
2020/12/26 08:42:52;;;;;;;2.97;0.90;;;20.30;35.90;;;;;;4992163;28;20425;-67
2020/12/26 08:45:23;;;;;;;3.20;0.80;;;20.30;36.00;;;;;;4991652;28;20565;-68
2020/12/26 08:47:50;;;;;;;4.70;0.95;;;20.30;36.20;;;;;;4993141;28;20465;-67
2020/12/26 08:50:15;;;;;;;5.93;1.00;;;20.40;37.40;;;;;;4993057;28;20422;-67
2020/12/26 08:52:43;;;;;;;5.38;0.98;;;20.40;37.20;;;;;;4993079;28;20430;-67
2020/12/26 08:55:09;;;;;;;3.17;0.90;;;20.30;37.30;;;;;;4992643;28;20405;-67
2020/12/26 08:57:38;;;;;;;3.03;0.90;;;20.40;37.10;;;;;;4991573;28;20550;-67
2020/12/26 09:00:21;;;;;;;2.38;0.90;;;20.40;36.80;;;;;;4994668;28;20416;-67
2020/12/26 09:02:47;;;;;;;3.50;1.10;;;20.40;37.60;;;;;;4998775;28;20490;-67
2020/12/26 09:05:30;;;;;;;3.95;0.90;;;20.40;37.10;;;;;;5005429;28;20451;-68
2020/12/26 09:08:02;;;;;;;5.65;1.10;;;20.40;39.50;;;;;;4995557;28;20391;-67
2020/12/26 09:10:27;;;;;;;3.90;0.98;;;20.40;38.50;;;;;;4975189;28;20426;-67
2020/12/26 09:13:01;;;;;;;4.50;1.00;;;20.40;39.40;;;;;;4974798;28;20397;-67
2020/12/26 09:15:27;;;;;;;3.92;1.10;;;20.40;40.00;;;;;;4973685;28;20921;-68
2020/12/26 09:17:52;;;;;;;5.03;1.20;;;20.40;39.70;;;;;;4975382;28;20394;-68
2020/12/26 09:20:18;;;;;;;2.78;1.13;;;20.40;38.90;;;;;;4975390;28;20399;-69
2020/12/26 09:22:43;;;;;;;2.47;1.10;;;20.50;37.30;;;;;;4992654;28;20410;-69
2020/12/26 09:25:25;;;;;;;2.53;1.30;;;20.40;36.80;;;;;;4992686;28;20394;-69
2020/12/26 09:28:02;;;;;;;4.00;1.30;;;20.40;36.80;;;;;;4991975;28;20736;-69
2020/12/26 09:30:28;;;;;;;4.80;1.25;;;20.40;36.80;;;;;;4974530;28;20510;-69
2020/12/26 09:32:55;;;;;;;2.17;1.35;;;20.40;36.70;;;;;;4992529;28;20941;-69
2020/12/26 09:35:22;;;;;;;4.40;1.80;;;20.50;36.70;;;;;;4974589;28;20418;-68
2020/12/26 09:37:52;;;;;;;4.78;1.98;;;20.50;36.20;;;;;;4975278;28;20453;-68
2020/12/26 09:40:18;;;;;;;8.37;1.80;;;20.40;36.20;;;;;;4989997;28;20496;-69
2020/12/26 09:42:50;;;;;;;4.53;1.80;;;20.40;36.10;;;;;;5011203;28;20435;-68
2020/12/26 09:45:17;;;;;;;3.30;1.80;;;20.50;35.90;;;;;;5011347;28;20393;-69
2020/12/26 09:47:42;;;;;;;4.30;1.85;;;20.50;35.90;;;;;;4994082;28;20424;-69
2020/12/26 09:50:08;;;;;;;4.70;1.83;;;20.60;35.70;;;;;;5011641;28;20452;-70
2020/12/26 09:52:34;;;;;;;2.40;1.70;;;20.60;35.60;;;;;;4994005;28;20796;-69
2020/12/26 09:55:00;;;;;;;4.70;1.98;;;20.60;35.40;;;;;;4994261;28;20892;-70
2020/12/26 09:57:25;;;;;;;3.90;2.00;;;20.60;35.30;;;;;;4993508;28;20392;-69
2020/12/26 09:59:51;;;;;;;5.28;2.08;;;20.60;35.30;;;;;;5011618;28;20407;-68
2020/12/26 10:02:16;;;;;;;3.63;1.70;;;20.60;35.30;;;;;;4993879;28;20412;-69
2020/12/26 10:04:42;;;;;;;2.17;1.77;;;20.70;35.10;;;;;;5011771;28;20459;-69
2020/12/26 10:07:09;;;;;;;2.50;1.67;;;20.70;35.10;;;;;;5011496;28;20788;-68
2020/12/26 10:09:35;;;;;;;2.78;1.90;;;20.70;35.00;;;;;;5011240;28;20420;-70
2020/12/26 10:12:01;;;;;;;3.10;1.60;;;20.70;35.00;;;;;;4986278;28;20473;-69
2020/12/26 10:14:26;;;;;;;2.25;1.67;;;20.60;34.90;;;;;;4994748;28;20775;-70
2020/12/26 10:16:52;;;;;;;2.40;1.60;;;20.70;34.90;;;;;;4991945;28;20449;-69
2020/12/26 10:19:17;;;;;;;3.40;1.80;;;20.70;34.90;;;;;;4991636;28;20397;-69
2020/12/26 10:21:43;;;;;;;2.50;1.70;;;20.70;34.90;;;;;;4974459;28;20395;-69
2020/12/26 10:24:09;;;;;;;2.50;1.50;;;20.70;34.80;;;;;;4991958;28;20480;-70
2020/12/26 10:26:34;;;;;;;2.20;1.60;;;20.70;34.80;;;;;;4991963;28;20425;-69
2020/12/26 10:29:00;;;;;;;2.42;1.70;;;20.70;34.70;;;;;;4974463;28;20436;-70
2020/12/26 10:31:29;;;;;;;2.40;1.50;;;20.60;34.60;;;;;;4973862;28;20452;-70
2020/12/26 10:33:54;;;;;;;2.25;1.60;;;20.70;34.70;;;;;;4992012;28;20964;-69
2020/12/26 10:36:20;;;;;;;1.98;1.60;;;20.60;34.60;;;;;;4991902;28;20394;-69
2020/12/26 10:38:46;;;;;;;1.80;1.60;;;20.60;34.50;;;;;;4974210;28;20406;-70
2020/12/26 10:41:12;;;;;;;2.40;1.58;;;20.70;34.50;;;;;;4974297;28;20401;-69
2020/12/26 10:43:37;;;;;;;1.98;1.50;;;20.80;34.60;;;;;;4991473;28;20398;-69
2020/12/26 10:46:04;;;;;;;2.00;1.50;;;20.80;34.60;;;;;;5008165;28;20550;-70
2020/12/26 10:48:30;;;;;;;1.98;1.42;;;20.80;34.60;;;;;;4999340;28;20415;-70
2020/12/26 10:50:55;;;;;;;1.93;1.50;;;20.80;34.50;;;;;;4982974;28;20769;-70
2020/12/26 10:53:21;;;;;;;2.00;1.63;;;20.80;34.60;;;;;;5000778;28;20502;-69
2020/12/26 10:55:46;;;;;;;2.13;1.60;;;20.80;34.60;;;;;;4999517;28;20437;-69
2020/12/26 10:58:13;;;;;;;1.98;1.70;;;20.80;34.60;;;;;;4999331;28;20391;-69
2020/12/26 11:00:39;;;;;;;2.28;1.90;;;20.80;34.50;;;;;;4982458;28;20832;-68
2020/12/26 11:03:05;;;;;;;2.92;1.75;;;20.80;34.60;;;;;;4998695;28;20410;-69
2020/12/26 11:05:31;;;;;;;1.93;1.73;;;20.80;34.60;;;;;;5000593;28;20936;-69
2020/12/26 11:07:57;;;;;;;2.15;1.90;;;20.80;34.50;;;;;;5000398;28;20426;-70
2020/12/26 11:10:22;;;;;;;2.45;1.92;;;20.80;34.40;;;;;;5002657;28;20466;-69
2020/12/26 11:12:48;;;;;;;3.07;2.30;;;20.80;34.40;;;;;;5005025;28;20807;-69
2020/12/26 11:15:14;;;;;;;3.67;2.30;;;20.90;34.30;;;;;;5002074;28;20396;-69
2020/12/26 11:17:40;;;;;;;3.47;2.60;;;20.80;34.10;;;;;;5004667;28;20421;-69
2020/12/26 11:20:06;;;;;;;3.15;2.40;;;20.90;34.10;;;;;;5002399;28;20394;-69
2020/12/26 11:22:31;;;;;;;3.43;2.60;;;20.90;34.00;;;;;;5004370;28;21225;-71
2020/12/26 11:24:57;;;;;;;4.00;2.60;;;20.90;34.00;;;;;;5003799;28;20394;-70
2020/12/26 11:27:23;;;;;;;3.70;2.60;;;20.90;33.80;;;;;;5002216;28;20389;-69
2020/12/26 11:29:51;;;;;;;3.77;2.63;;;21.00;33.70;;;;;;5002446;28;20953;-69
2020/12/26 11:32:16;;;;;;;3.47;2.60;;;21.00;33.70;;;;;;4998777;28;20394;-68
2020/12/26 11:34:42;;;;;;;3.10;2.43;;;21.00;33.70;;;;;;4977328;28;20399;-69
2020/12/26 11:37:08;;;;;;;3.22;2.58;;;21.10;33.60;;;;;;4977536;28;20895;-69
2020/12/26 11:39:34;;;;;;;3.45;2.45;;;21.00;33.50;;;;;;4994138;28;20805;-69
2020/12/26 11:42:00;;;;;;;3.30;2.53;;;21.10;33.40;;;;;;4994804;28;20422;-68
2020/12/26 11:44:26;;;;;;;3.67;2.40;;;21.10;33.40;;;;;;4994235;28;20437;-68
2020/12/26 11:46:51;;;;;;;3.47;2.50;;;21.10;33.50;;;;;;5004195;28;20396;-69
2020/12/26 11:49:22;;;;;;;3.63;2.63;;;21.10;33.30;;;;;;4996117;28;20448;-69
2020/12/26 11:51:50;;;;;;;3.40;2.50;;;21.10;33.30;;;;;;5014130;28;20447;-69
2020/12/26 11:54:15;;;;;;;3.22;2.22;;;21.10;33.30;;;;;;5014090;28;20443;-69
2020/12/26 11:56:41;;;;;;;3.00;2.30;;;21.10;33.00;;;;;;5014123;28;20396;-71
2020/12/26 11:59:06;;;;;;;3.80;2.50;;;21.10;33.10;;;;;;5013948;28;20393;-70
2020/12/26 12:01:32;;;;;;;3.23;2.50;;;21.10;33.10;;;;;;5013465;28;20405;-69
2020/12/26 12:03:57;;;;;;;4.20;2.80;;;21.20;33.00;;;;;;5013784;28;20418;-71
2020/12/26 12:06:23;;;;;;;3.10;2.60;;;21.20;33.00;;;;;;5013755;28;20812;-69
2020/12/26 12:08:49;;;;;;;2.90;2.30;;;21.20;32.90;;;;;;5013739;28;20416;-69
2020/12/26 12:11:17;;;;;;;3.50;2.50;;;21.30;32.80;;;;;;4995931;28;20404;-69
2020/12/26 12:13:42;;;;;;;3.10;2.40;;;21.30;32.80;;;;;;5013485;28;20535;-69
2020/12/26 12:16:12;;;;;;;2.97;2.27;;;21.30;32.80;;;;;;5013800;28;20443;-69
2020/12/26 12:18:37;;;;;;;3.38;2.40;;;21.30;33.00;;;;;;5013373;28;20460;-70
2020/12/26 12:21:03;;;;;;;3.77;2.20;;;21.30;33.10;;;;;;5012319;28;20401;-69
2020/12/26 12:23:29;;;;;;;4.75;2.10;;;21.40;36.60;;;;;;5009315;28;20415;-68
2020/12/26 12:25:54;;;;;;;4.13;2.10;;;21.70;34.60;;;;;;5000417;28;20951;-70
2020/12/26 12:28:20;;;;;;;4.57;2.20;;;21.90;34.60;;;;;;5003730;28;20907;-70
2020/12/26 12:30:45;;;;;;;4.97;2.13;;;22.10;34.30;;;;;;4975643;28;20467;-69
2020/12/26 12:33:11;;;;;;;4.28;2.30;;;22.20;33.40;;;;;;4987174;28;20501;-69
2020/12/26 12:35:37;;;;;;;5.70;3.83;;;22.30;34.30;;;;;;4986024;28;20445;-69
2020/12/26 12:38:02;;;;;;;6.95;2.92;;;22.30;34.20;;;;;;4982466;28;20400;-70
2020/12/26 12:40:28;;;;;;;5.37;2.60;;;22.40;33.90;;;;;;4980800;28;20430;-69
2020/12/26 12:42:54;;;;;;;12.07;10.88;;;22.50;32.90;;;;;;4995368;28;20402;-70
2020/12/26 12:45:20;;;;;;;8.90;8.00;;;22.80;34.00;;;;;;5012594;28;20393;-69
2020/12/26 12:47:47;;;;;;;7.20;5.63;;;23.10;33.90;;;;;;5011551;28;20427;-70
2020/12/26 12:50:13;;;;;;;7.40;5.10;;;23.20;33.60;;;;;;5012438;28;20889;-69
2020/12/26 12:52:39;;;;;;;7.30;4.87;;;23.20;33.80;;;;;;5012393;28;20388;-69